createdAt,value
2023-05-12T00:42:19.940Z,4.10
2023-05-12T00:47:12.601Z,3.70
2023-05-12T00:52:02.724Z,4.47
2023-05-12T00:56:56.279Z,8.23
2023-05-12T01:01:51.091Z,7.55
2023-05-12T01:06:51.213Z,5.80
2023-05-12T01:11:41.479Z,6.57
2023-05-12T02:29:38.280Z,6.10
2023-05-12T02:34:29.437Z,7.03
2023-05-12T02:39:19.843Z,6.88
2023-05-12T02:44:12.551Z,6.50
2023-05-12T03:37:32.934Z,10.60
2023-05-12T03:42:27.032Z,8.93
2023-05-12T03:47:17.329Z,8.88
2023-05-12T03:52:08.970Z,7.35
2023-05-12T03:56:58.902Z,8.23
2023-05-12T04:01:51.601Z,7.18
2023-05-12T04:06:41.945Z,6.68
2023-05-12T04:11:34.615Z,4.90
2023-05-12T04:16:24.526Z,7.60
2023-05-12T04:21:17.073Z,9.10
2023-05-12T04:26:07.832Z,6.80
2023-05-12T04:30:58.840Z,9.40
2023-05-12T04:35:49.261Z,7.40
2023-05-12T04:40:42.075Z,8.77
2023-05-12T09:40:04.911Z,8.73
2023-05-12T09:44:57.552Z,5.78
2023-05-12T09:49:49.852Z,5.07
2023-05-12T09:54:43.910Z,4.00
2023-05-12T09:59:36.311Z,2.25
2023-05-12T10:04:29.524Z,2.72
2023-05-12T10:09:23.665Z,2.35
2023-05-12T10:14:13.824Z,3.70
2023-05-12T10:19:04.674Z,3.17
2023-05-12T10:23:58.059Z,1.73
2023-05-12T10:28:51.196Z,2.83
2023-05-12T10:33:41.444Z,2.08
2023-05-12T10:38:39.754Z,1.60
2023-05-12T10:43:41.637Z,3.30
2023-05-12T10:53:48.363Z,2.70
2023-05-12T10:59:12.685Z,2.78
2023-05-12T11:04:13.658Z,2.42
2023-05-12T11:09:05.069Z,2.05
2023-05-12T11:13:58.515Z,2.83
2023-05-12T11:18:50.317Z,2.05
2023-05-12T11:23:40.256Z,1.90
2023-05-12T11:28:31.321Z,1.58
2023-05-12T11:33:26.266Z,1.63
2023-05-12T11:38:18.939Z,1.35
2023-05-12T11:43:12.949Z,1.35
2023-05-12T11:48:12.025Z,1.00
2023-05-12T11:53:04.977Z,0.98
2023-05-12T11:58:02.914Z,0.80
2023-05-12T12:02:52.795Z,2.58
2023-05-12T12:07:42.927Z,2.25
2023-05-12T12:12:35.514Z,2.85
2023-05-12T12:17:30.999Z,2.00
2023-05-12T12:22:20.936Z,1.00
2023-05-12T12:27:10.804Z,1.83
2023-05-12T12:32:03.493Z,2.10
2023-05-12T12:36:53.348Z,1.25
2023-05-12T12:41:44.265Z,1.50
2023-05-12T12:46:34.194Z,1.77
2023-05-12T12:51:38.485Z,0.73
2023-05-12T12:56:35.057Z,1.07
2023-05-12T14:48:06.466Z,1.27
2023-05-12T14:52:58.367Z,3.33
2023-05-12T14:57:48.330Z,1.10
2023-05-12T15:02:38.363Z,0.80
2023-05-12T15:07:34.513Z,1.27
2023-05-12T15:12:24.719Z,1.70
2023-05-12T15:17:14.640Z,1.50
2023-05-12T15:22:04.588Z,2.05
2023-05-12T15:27:07.403Z,2.53
2023-05-12T15:31:57.628Z,1.20
2023-05-12T15:36:49.057Z,1.70
2023-05-12T15:41:39.182Z,1.70
2023-05-12T15:46:32.281Z,1.90
2023-05-12T15:51:24.522Z,1.93
2023-05-12T15:56:14.312Z,2.10
2023-05-12T16:01:05.653Z,2.38
2023-05-12T16:05:59.581Z,0.95
2023-05-12T16:10:49.862Z,1.80
2023-05-12T16:15:39.811Z,1.42
2023-05-12T16:20:29.962Z,1.33
2023-05-12T16:25:22.985Z,1.50
2023-05-12T16:30:16.637Z,7.53
2023-05-12T16:35:08.847Z,7.38
2023-05-12T16:39:58.662Z,7.35
2023-05-12T16:44:51.699Z,7.82
2023-05-12T16:49:41.502Z,7.07
2023-05-12T16:54:33.437Z,8.30
2023-05-12T16:59:23.257Z,7.63
2023-05-12T17:04:15.913Z,8.17
2023-05-12T17:09:05.963Z,8.57
2023-05-12T17:13:56.582Z,5.03
2023-05-12T17:23:42.078Z,3.17
2023-05-12T17:28:33.352Z,5.97
2023-05-12T17:33:23.658Z,5.50
2023-05-12T17:38:13.502Z,5.47
2023-05-12T17:43:06.218Z,4.93
2023-05-12T17:47:56.853Z,3.63
2023-05-12T17:52:48.490Z,3.10
2023-05-12T17:57:38.789Z,3.13
2023-05-12T18:02:33.437Z,3.35
2023-05-12T18:07:23.454Z,4.55
2023-05-12T18:12:14.211Z,4.43
2023-05-12T18:17:04.128Z,2.72
2023-05-12T18:21:56.940Z,3.38
2023-05-12T18:26:47.430Z,5.80
2023-05-12T18:31:37.302Z,3.25
2023-05-12T18:36:27.122Z,5.00
2023-05-12T18:41:19.554Z,4.33
2023-05-12T18:46:09.546Z,3.80
2023-05-12T18:50:59.852Z,3.63
2023-05-12T18:55:52.153Z,3.40
2023-05-12T19:00:44.986Z,5.67
2023-05-12T19:05:39.105Z,4.57
2023-05-12T19:10:30.097Z,4.70
2023-05-12T19:15:21.414Z,5.15
2023-05-12T19:20:15.102Z,5.07
2023-05-12T19:25:06.247Z,4.83
2023-05-12T19:29:57.649Z,6.17
2023-05-12T19:34:47.818Z,4.53
2023-05-12T19:39:42.612Z,5.10
2023-05-12T19:44:36.838Z,4.93
2023-05-12T19:49:26.917Z,5.68
2023-05-12T19:54:16.680Z,5.70
2023-05-12T19:59:09.226Z,5.70
2023-05-12T20:03:59.343Z,5.38
2023-05-12T20:08:49.626Z,4.85
2023-05-12T20:13:39.602Z,5.07
2023-05-12T20:18:32.154Z,4.87
2023-05-12T20:23:24.220Z,5.45
2023-05-12T20:28:14.295Z,5.40
2023-05-12T20:33:04.573Z,5.80
2023-05-12T20:37:57.218Z,7.03
2023-05-12T20:42:51.101Z,7.25
2023-05-12T20:47:41.133Z,8.87
2023-05-12T20:52:31.713Z,10.75
2023-05-12T20:57:24.262Z,11.35
2023-05-12T21:02:14.288Z,12.87
2023-05-12T21:07:04.747Z,13.80
2023-05-12T21:11:54.637Z,14.45
2023-05-12T21:16:47.100Z,15.75
2023-05-12T21:21:37.035Z,15.40
2023-05-12T21:26:26.900Z,15.93
2023-05-12T21:31:16.832Z,15.52
2023-05-12T21:36:10.988Z,16.02
2023-05-12T21:41:01.331Z,16.55
2023-05-12T21:45:51.327Z,15.10
2023-05-12T21:50:41.317Z,16.70
2023-05-12T21:55:33.721Z,16.47
2023-05-12T22:00:24.064Z,16.50
2023-05-12T22:05:14.261Z,17.60
2023-05-12T22:10:05.971Z,16.40
2023-05-12T22:14:58.457Z,15.88
2023-05-12T22:19:50.416Z,16.20
2023-05-12T22:24:40.262Z,16.70
2023-05-12T22:29:30.367Z,16.05
2023-05-12T22:34:23.161Z,16.73
2023-05-12T22:39:13.875Z,16.58
2023-05-12T22:44:03.938Z,16.55
2023-05-12T22:48:53.803Z,16.48
2023-05-12T22:53:46.196Z,16.42
2023-05-12T22:58:36.113Z,16.25
2023-05-12T23:03:26.218Z,17.13
2023-05-12T23:08:16.196Z,17.00
2023-05-12T23:13:08.666Z,18.77
2023-05-12T23:17:58.493Z,19.58
2023-05-12T23:22:48.393Z,19.65
2023-05-12T23:27:38.761Z,21.33
2023-05-12T23:32:31.415Z,23.30
2023-05-12T23:37:22.624Z,21.52
2023-05-12T23:42:13.573Z,24.33
2023-05-12T23:47:03.863Z,22.10
2023-05-12T23:51:56.758Z,22.60
2023-05-12T23:56:47.094Z,22.65
